sensor_id;sensor_type;location;lat;lon;timestamp;P1;durP1;ratioP1;P2;durP2;ratioP2
52982;SDS011;48698;45.736;13.926;2023-03-01T00:00:21;25.45;;;21.05;;
52982;SDS011;48698;45.736;13.926;2023-03-01T00:05:24;23.55;;;20.13;;
52982;SDS011;48698;45.736;13.926;2023-03-01T00:10:27;23.50;;;19.63;;
52982;SDS011;48698;45.736;13.926;2023-03-01T00:15:40;22.85;;;20.10;;
52982;SDS011;48698;45.736;13.926;2023-03-01T00:20:53;26.98;;;19.90;;
52982;SDS011;48698;45.736;13.926;2023-03-01T00:25:57;22.67;;;19.58;;
52982;SDS011;48698;45.736;13.926;2023-03-01T00:31:17;24.80;;;19.33;;
52982;SDS011;48698;45.736;13.926;2023-03-01T00:36:21;20.83;;;18.55;;
52982;SDS011;48698;45.736;13.926;2023-03-01T00:41:25;22.35;;;18.58;;
52982;SDS011;48698;45.736;13.926;2023-03-01T00:46:31;22.67;;;18.23;;
52982;SDS011;48698;45.736;13.926;2023-03-01T00:51:34;23.15;;;18.70;;
52982;SDS011;48698;45.736;13.926;2023-03-01T00:56:37;23.25;;;17.02;;
52982;SDS011;48698;45.736;13.926;2023-03-01T01:01:39;21.85;;;18.30;;
52982;SDS011;48698;45.736;13.926;2023-03-01T01:06:43;22.73;;;18.45;;
52982;SDS011;48698;45.736;13.926;2023-03-01T01:16:52;23.75;;;18.67;;
52982;SDS011;48698;45.736;13.926;2023-03-01T01:21:54;22.60;;;17.98;;
52982;SDS011;48698;45.736;13.926;2023-03-01T01:26:57;22.13;;;18.00;;
52982;SDS011;48698;45.736;13.926;2023-03-01T01:32:00;23.63;;;18.60;;
52982;SDS011;48698;45.736;13.926;2023-03-01T01:37:05;23.38;;;18.48;;
52982;SDS011;48698;45.736;13.926;2023-03-01T01:42:14;21.50;;;17.57;;
52982;SDS011;48698;45.736;13.926;2023-03-01T01:47:29;22.80;;;17.80;;
52982;SDS011;48698;45.736;13.926;2023-03-01T01:52:33;21.48;;;18.90;;
52982;SDS011;48698;45.736;13.926;2023-03-01T01:57:40;22.85;;;19.15;;
52982;SDS011;48698;45.736;13.926;2023-03-01T02:02:47;24.13;;;18.83;;
52982;SDS011;48698;45.736;13.926;2023-03-01T02:07:54;20.63;;;18.42;;
52982;SDS011;48698;45.736;13.926;2023-03-01T02:12:58;23.10;;;18.05;;
52982;SDS011;48698;45.736;13.926;2023-03-01T02:18:02;25.02;;;19.00;;
52982;SDS011;48698;45.736;13.926;2023-03-01T02:23:06;21.13;;;18.52;;
52982;SDS011;48698;45.736;13.926;2023-03-01T02:33:19;24.90;;;19.50;;
52982;SDS011;48698;45.736;13.926;2023-03-01T02:38:22;22.70;;;18.90;;
52982;SDS011;48698;45.736;13.926;2023-03-01T02:43:27;21.88;;;18.77;;
52982;SDS011;48698;45.736;13.926;2023-03-01T02:48:46;23.23;;;17.95;;
52982;SDS011;48698;45.736;13.926;2023-03-01T02:59:22;23.55;;;18.30;;
52982;SDS011;48698;45.736;13.926;2023-03-01T03:04:39;22.08;;;18.55;;
52982;SDS011;48698;45.736;13.926;2023-03-01T03:09:43;24.00;;;19.35;;
52982;SDS011;48698;45.736;13.926;2023-03-01T03:14:45;23.20;;;19.40;;
52982;SDS011;48698;45.736;13.926;2023-03-01T03:19:48;25.95;;;20.33;;
52982;SDS011;48698;45.736;13.926;2023-03-01T03:24:51;22.85;;;19.05;;
52982;SDS011;48698;45.736;13.926;2023-03-01T03:29:53;24.13;;;19.48;;
52982;SDS011;48698;45.736;13.926;2023-03-01T03:34:56;23.77;;;19.88;;
52982;SDS011;48698;45.736;13.926;2023-03-01T03:39:59;26.92;;;19.55;;
52982;SDS011;48698;45.736;13.926;2023-03-01T03:45:01;24.50;;;19.50;;
52982;SDS011;48698;45.736;13.926;2023-03-01T03:50:04;25.02;;;19.42;;
52982;SDS011;48698;45.736;13.926;2023-03-01T03:55:15;23.90;;;19.27;;
52982;SDS011;48698;45.736;13.926;2023-03-01T04:00:25;25.73;;;19.58;;
52982;SDS011;48698;45.736;13.926;2023-03-01T04:05:28;39.03;;;27.08;;
52982;SDS011;48698;45.736;13.926;2023-03-01T04:10:42;24.67;;;21.15;;
52982;SDS011;48698;45.736;13.926;2023-03-01T04:15:50;24.92;;;21.13;;
52982;SDS011;48698;45.736;13.926;2023-03-01T04:20:53;24.50;;;19.77;;
52982;SDS011;48698;45.736;13.926;2023-03-01T04:25:57;23.27;;;20.50;;
52982;SDS011;48698;45.736;13.926;2023-03-01T04:31:08;22.92;;;18.80;;
52982;SDS011;48698;45.736;13.926;2023-03-01T04:36:19;23.88;;;19.98;;
52982;SDS011;48698;45.736;13.926;2023-03-01T04:41:25;25.00;;;20.10;;
52982;SDS011;48698;45.736;13.926;2023-03-01T04:46:28;25.05;;;20.85;;
52982;SDS011;48698;45.736;13.926;2023-03-01T04:51:31;24.88;;;20.80;;
52982;SDS011;48698;45.736;13.926;2023-03-01T04:56:37;22.05;;;18.83;;
52982;SDS011;48698;45.736;13.926;2023-03-01T05:01:39;25.20;;;20.15;;
52982;SDS011;48698;45.736;13.926;2023-03-01T05:06:45;26.17;;;22.65;;
52982;SDS011;48698;45.736;13.926;2023-03-01T05:11:48;25.02;;;21.92;;
52982;SDS011;48698;45.736;13.926;2023-03-01T05:16:50;24.40;;;19.38;;
52982;SDS011;48698;45.736;13.926;2023-03-01T05:21:53;25.42;;;20.67;;
52982;SDS011;48698;45.736;13.926;2023-03-01T05:27:09;23.67;;;20.40;;
52982;SDS011;48698;45.736;13.926;2023-03-01T05:32:11;25.42;;;20.27;;
52982;SDS011;48698;45.736;13.926;2023-03-01T05:37:17;25.40;;;20.15;;
52982;SDS011;48698;45.736;13.926;2023-03-01T05:42:21;25.40;;;18.58;;
52982;SDS011;48698;45.736;13.926;2023-03-01T05:47:24;25.50;;;19.90;;
52982;SDS011;48698;45.736;13.926;2023-03-01T05:52:27;27.08;;;22.90;;
52982;SDS011;48698;45.736;13.926;2023-03-01T05:57:29;23.75;;;19.27;;
52982;SDS011;48698;45.736;13.926;2023-03-01T06:02:32;26.45;;;21.17;;
52982;SDS011;48698;45.736;13.926;2023-03-01T06:07:34;27.75;;;20.15;;
52982;SDS011;48698;45.736;13.926;2023-03-01T06:12:47;25.13;;;21.10;;
52982;SDS011;48698;45.736;13.926;2023-03-01T06:17:50;24.23;;;19.75;;
52982;SDS011;48698;45.736;13.926;2023-03-01T06:22:53;25.40;;;20.48;;
52982;SDS011;48698;45.736;13.926;2023-03-01T06:27:57;23.98;;;20.50;;
52982;SDS011;48698;45.736;13.926;2023-03-01T06:32:59;27.98;;;23.63;;
52982;SDS011;48698;45.736;13.926;2023-03-01T06:38:03;29.20;;;21.90;;
52982;SDS011;48698;45.736;13.926;2023-03-01T06:43:07;27.63;;;22.50;;
52982;SDS011;48698;45.736;13.926;2023-03-01T06:48:10;28.05;;;23.25;;
52982;SDS011;48698;45.736;13.926;2023-03-01T06:53:13;26.90;;;23.50;;
52982;SDS011;48698;45.736;13.926;2023-03-01T06:58:15;27.15;;;22.75;;
52982;SDS011;48698;45.736;13.926;2023-03-01T07:03:18;31.33;;;24.20;;
52982;SDS011;48698;45.736;13.926;2023-03-01T07:08:27;28.83;;;23.15;;
52982;SDS011;48698;45.736;13.926;2023-03-01T07:13:31;27.25;;;22.52;;
52982;SDS011;48698;45.736;13.926;2023-03-01T07:18:44;27.45;;;22.95;;
52982;SDS011;48698;45.736;13.926;2023-03-01T07:23:47;31.35;;;26.15;;
52982;SDS011;48698;45.736;13.926;2023-03-01T07:28:51;27.63;;;23.17;;
52982;SDS011;48698;45.736;13.926;2023-03-01T07:33:54;26.10;;;22.42;;
52982;SDS011;48698;45.736;13.926;2023-03-01T07:38:57;24.60;;;21.30;;
52982;SDS011;48698;45.736;13.926;2023-03-01T07:44:00;23.98;;;19.55;;
52982;SDS011;48698;45.736;13.926;2023-03-01T07:49:02;25.08;;;20.88;;
52982;SDS011;48698;45.736;13.926;2023-03-01T07:54:05;25.95;;;21.52;;
52982;SDS011;48698;45.736;13.926;2023-03-01T07:59:08;26.63;;;19.98;;
52982;SDS011;48698;45.736;13.926;2023-03-01T08:04:11;35.45;;;29.35;;
52982;SDS011;48698;45.736;13.926;2023-03-01T08:09:14;25.80;;;21.52;;
52982;SDS011;48698;45.736;13.926;2023-03-01T08:14:17;24.58;;;20.27;;
52982;SDS011;48698;45.736;13.926;2023-03-01T08:19:20;30.27;;;22.23;;
52982;SDS011;48698;45.736;13.926;2023-03-01T08:24:23;23.45;;;20.35;;
52982;SDS011;48698;45.736;13.926;2023-03-01T08:29:25;23.65;;;19.45;;
52982;SDS011;48698;45.736;13.926;2023-03-01T08:34:28;26.23;;;20.10;;
52982;SDS011;48698;45.736;13.926;2023-03-01T08:39:31;24.63;;;20.90;;
52982;SDS011;48698;45.736;13.926;2023-03-01T08:44:34;25.05;;;20.17;;
52982;SDS011;48698;45.736;13.926;2023-03-01T08:49:37;23.52;;;20.23;;
52982;SDS011;48698;45.736;13.926;2023-03-01T08:54:49;22.80;;;17.63;;
52982;SDS011;48698;45.736;13.926;2023-03-01T08:59:53;24.98;;;20.30;;
52982;SDS011;48698;45.736;13.926;2023-03-01T09:04:58;25.30;;;19.30;;
52982;SDS011;48698;45.736;13.926;2023-03-01T09:10:01;26.45;;;20.65;;
52982;SDS011;48698;45.736;13.926;2023-03-01T09:15:05;22.88;;;20.23;;
52982;SDS011;48698;45.736;13.926;2023-03-01T09:20:08;24.83;;;18.35;;
52982;SDS011;48698;45.736;13.926;2023-03-01T09:25:11;23.17;;;20.48;;
52982;SDS011;48698;45.736;13.926;2023-03-01T09:30:14;31.55;;;25.98;;
52982;SDS011;48698;45.736;13.926;2023-03-01T09:35:18;24.55;;;21.85;;
52982;SDS011;48698;45.736;13.926;2023-03-01T09:40:23;57.33;;;42.37;;
52982;SDS011;48698;45.736;13.926;2023-03-01T09:45:33;79.75;;;46.40;;
52982;SDS011;48698;45.736;13.926;2023-03-01T09:50:39;23.35;;;19.55;;
52982;SDS011;48698;45.736;13.926;2023-03-01T09:56:05;21.80;;;18.90;;
52982;SDS011;48698;45.736;13.926;2023-03-01T10:01:27;19.00;;;16.98;;
52982;SDS011;48698;45.736;13.926;2023-03-01T10:06:35;21.05;;;18.35;;
52982;SDS011;48698;45.736;13.926;2023-03-01T10:11:38;19.80;;;16.58;;
52982;SDS011;48698;45.736;13.926;2023-03-01T10:16:57;23.52;;;16.98;;
52982;SDS011;48698;45.736;13.926;2023-03-01T10:22:10;20.08;;;16.95;;
52982;SDS011;48698;45.736;13.926;2023-03-01T10:27:20;20.30;;;16.75;;
52982;SDS011;48698;45.736;13.926;2023-03-01T10:32:24;19.50;;;16.45;;
52982;SDS011;48698;45.736;13.926;2023-03-01T10:37:28;17.48;;;15.57;;
52982;SDS011;48698;45.736;13.926;2023-03-01T10:42:33;18.33;;;14.60;;
52982;SDS011;48698;45.736;13.926;2023-03-01T10:48:02;16.08;;;13.73;;
52982;SDS011;48698;45.736;13.926;2023-03-01T10:58:32;19.60;;;16.70;;
52982;SDS011;48698;45.736;13.926;2023-03-01T11:03:37;20.77;;;18.35;;
52982;SDS011;48698;45.736;13.926;2023-03-01T11:13:55;17.83;;;15.77;;
52982;SDS011;48698;45.736;13.926;2023-03-01T11:19:28;17.20;;;14.60;;
52982;SDS011;48698;45.736;13.926;2023-03-01T11:24:43;14.95;;;13.02;;
52982;SDS011;48698;45.736;13.926;2023-03-01T11:30:05;15.82;;;14.05;;
52982;SDS011;48698;45.736;13.926;2023-03-01T11:35:20;13.43;;;11.50;;
52982;SDS011;48698;45.736;13.926;2023-03-01T11:40:32;14.43;;;12.20;;
52982;SDS011;48698;45.736;13.926;2023-03-01T11:45:50;14.57;;;12.20;;
52982;SDS011;48698;45.736;13.926;2023-03-01T11:51:09;26.83;;;20.35;;
52982;SDS011;48698;45.736;13.926;2023-03-01T11:56:29;45.75;;;41.53;;
52982;SDS011;48698;45.736;13.926;2023-03-01T12:17:35;18.25;;;16.17;;
52982;SDS011;48698;45.736;13.926;2023-03-01T12:28:34;16.60;;;13.88;;
52982;SDS011;48698;45.736;13.926;2023-03-01T12:49:48;15.43;;;13.93;;
52982;SDS011;48698;45.736;13.926;2023-03-01T12:54:57;15.48;;;13.85;;
52982;SDS011;48698;45.736;13.926;2023-03-01T13:10:55;11.27;;;9.00;;
52982;SDS011;48698;45.736;13.926;2023-03-01T13:16:51;9.93;;;8.85;;
52982;SDS011;48698;45.736;13.926;2023-03-01T13:21:33;45.83;;;30.73;;
52982;SDS011;48698;45.736;13.926;2023-03-01T13:27:08;32.85;;;24.83;;
52982;SDS011;48698;45.736;13.926;2023-03-01T13:32:25;18.67;;;6.95;;
52982;SDS011;48698;45.736;13.926;2023-03-01T13:37:46;9.20;;;7.28;;
52982;SDS011;48698;45.736;13.926;2023-03-01T13:42:50;9.98;;;8.30;;
52982;SDS011;48698;45.736;13.926;2023-03-01T13:48:14;7.72;;;5.60;;
52982;SDS011;48698;45.736;13.926;2023-03-01T13:53:22;9.23;;;6.33;;
52982;SDS011;48698;45.736;13.926;2023-03-01T13:58:46;5.47;;;4.15;;
52982;SDS011;48698;45.736;13.926;2023-03-01T14:03:53;7.83;;;5.63;;
52982;SDS011;48698;45.736;13.926;2023-03-01T14:09:10;5.25;;;3.83;;
52982;SDS011;48698;45.736;13.926;2023-03-01T14:19:46;4.20;;;2.95;;
52982;SDS011;48698;45.736;13.926;2023-03-01T14:24:52;8.45;;;4.15;;
52982;SDS011;48698;45.736;13.926;2023-03-01T14:30:00;14.93;;;7.25;;
52982;SDS011;48698;45.736;13.926;2023-03-01T14:35:27;4.03;;;2.65;;
52982;SDS011;48698;45.736;13.926;2023-03-01T14:40:35;3.95;;;3.50;;
52982;SDS011;48698;45.736;13.926;2023-03-01T14:45:39;5.45;;;3.70;;
52982;SDS011;48698;45.736;13.926;2023-03-01T14:50:51;2.85;;;2.22;;
52982;SDS011;48698;45.736;13.926;2023-03-01T14:55:55;5.18;;;3.72;;
52982;SDS011;48698;45.736;13.926;2023-03-01T15:01:05;11.98;;;6.60;;
52982;SDS011;48698;45.736;13.926;2023-03-01T15:06:12;2.35;;;2.10;;
52982;SDS011;48698;45.736;13.926;2023-03-01T15:16:31;9.40;;;7.85;;
52982;SDS011;48698;45.736;13.926;2023-03-01T15:21:37;7.60;;;5.15;;
52982;SDS011;48698;45.736;13.926;2023-03-01T15:37:37;5.75;;;3.53;;
52982;SDS011;48698;45.736;13.926;2023-03-01T15:42:50;6.32;;;4.65;;
52982;SDS011;48698;45.736;13.926;2023-03-01T15:47:58;3.40;;;2.60;;
52982;SDS011;48698;45.736;13.926;2023-03-01T15:53:10;4.30;;;3.90;;
52982;SDS011;48698;45.736;13.926;2023-03-01T15:58:17;3.08;;;2.28;;
52982;SDS011;48698;45.736;13.926;2023-03-01T16:03:24;3.72;;;2.60;;
52982;SDS011;48698;45.736;13.926;2023-03-01T16:08:28;2.20;;;2.00;;
52982;SDS011;48698;45.736;13.926;2023-03-01T16:13:42;5.97;;;3.72;;
52982;SDS011;48698;45.736;13.926;2023-03-01T16:18:46;5.25;;;3.88;;
52982;SDS011;48698;45.736;13.926;2023-03-01T16:23:50;3.70;;;2.80;;
52982;SDS011;48698;45.736;13.926;2023-03-01T16:28:58;4.50;;;3.33;;
52982;SDS011;48698;45.736;13.926;2023-03-01T16:34:02;3.75;;;3.10;;
52982;SDS011;48698;45.736;13.926;2023-03-01T16:39:05;3.00;;;2.50;;
52982;SDS011;48698;45.736;13.926;2023-03-01T16:44:09;4.05;;;2.70;;
52982;SDS011;48698;45.736;13.926;2023-03-01T16:49:12;3.80;;;2.60;;
52982;SDS011;48698;45.736;13.926;2023-03-01T16:54:17;7.73;;;6.50;;
52982;SDS011;48698;45.736;13.926;2023-03-01T16:59:21;6.35;;;5.65;;
52982;SDS011;48698;45.736;13.926;2023-03-01T17:04:24;3.65;;;3.25;;
52982;SDS011;48698;45.736;13.926;2023-03-01T17:09:28;3.17;;;2.70;;
52982;SDS011;48698;45.736;13.926;2023-03-01T17:14:34;2.47;;;2.17;;
52982;SDS011;48698;45.736;13.926;2023-03-01T17:19:38;2.50;;;2.20;;
52982;SDS011;48698;45.736;13.926;2023-03-01T17:24:44;4.75;;;3.35;;
52982;SDS011;48698;45.736;13.926;2023-03-01T17:29:50;2.30;;;1.85;;
52982;SDS011;48698;45.736;13.926;2023-03-01T17:34:53;1.45;;;1.35;;
52982;SDS011;48698;45.736;13.926;2023-03-01T17:39:57;2.65;;;2.40;;
52982;SDS011;48698;45.736;13.926;2023-03-01T17:45:00;3.30;;;2.83;;
52982;SDS011;48698;45.736;13.926;2023-03-01T17:50:03;3.78;;;3.25;;
52982;SDS011;48698;45.736;13.926;2023-03-01T17:55:08;1.52;;;1.42;;
52982;SDS011;48698;45.736;13.926;2023-03-01T18:00:22;1.90;;;1.73;;
52982;SDS011;48698;45.736;13.926;2023-03-01T18:05:26;3.30;;;2.80;;
52982;SDS011;48698;45.736;13.926;2023-03-01T18:10:33;2.30;;;1.80;;
52982;SDS011;48698;45.736;13.926;2023-03-01T18:15:38;1.40;;;1.30;;
52982;SDS011;48698;45.736;13.926;2023-03-01T18:20:42;3.28;;;1.70;;
52982;SDS011;48698;45.736;13.926;2023-03-01T18:25:45;4.10;;;3.08;;
52982;SDS011;48698;45.736;13.926;2023-03-01T18:30:48;7.05;;;4.88;;
52982;SDS011;48698;45.736;13.926;2023-03-01T18:35:57;0.77;;;0.77;;
52982;SDS011;48698;45.736;13.926;2023-03-01T18:41:01;1.10;;;1.00;;
52982;SDS011;48698;45.736;13.926;2023-03-01T18:46:04;1.35;;;1.25;;
52982;SDS011;48698;45.736;13.926;2023-03-01T18:51:18;1.30;;;1.10;;
52982;SDS011;48698;45.736;13.926;2023-03-01T18:56:30;6.60;;;5.97;;
52982;SDS011;48698;45.736;13.926;2023-03-01T19:01:35;3.67;;;2.33;;
52982;SDS011;48698;45.736;13.926;2023-03-01T19:06:40;2.70;;;1.50;;
52982;SDS011;48698;45.736;13.926;2023-03-01T19:11:43;8.30;;;3.92;;
52982;SDS011;48698;45.736;13.926;2023-03-01T19:16:47;5.50;;;3.22;;
52982;SDS011;48698;45.736;13.926;2023-03-01T19:21:50;1.70;;;1.60;;
52982;SDS011;48698;45.736;13.926;2023-03-01T19:27:06;1.85;;;1.40;;
52982;SDS011;48698;45.736;13.926;2023-03-01T19:32:10;2.53;;;2.30;;
52982;SDS011;48698;45.736;13.926;2023-03-01T19:37:14;8.70;;;6.50;;
52982;SDS011;48698;45.736;13.926;2023-03-01T19:42:17;1.48;;;1.10;;
52982;SDS011;48698;45.736;13.926;2023-03-01T19:47:20;4.45;;;3.13;;
52982;SDS011;48698;45.736;13.926;2023-03-01T19:52:24;4.20;;;3.85;;
52982;SDS011;48698;45.736;13.926;2023-03-01T19:57:27;1.63;;;1.52;;
52982;SDS011;48698;45.736;13.926;2023-03-01T20:02:31;2.65;;;2.13;;
52982;SDS011;48698;45.736;13.926;2023-03-01T20:07:35;3.55;;;2.97;;
52982;SDS011;48698;45.736;13.926;2023-03-01T20:12:38;1.60;;;1.17;;
52982;SDS011;48698;45.736;13.926;2023-03-01T20:17:42;1.10;;;1.00;;
52982;SDS011;48698;45.736;13.926;2023-03-01T20:22:45;11.18;;;10.05;;
52982;SDS011;48698;45.736;13.926;2023-03-01T20:27:48;32.72;;;28.23;;
52982;SDS011;48698;45.736;13.926;2023-03-01T20:32:53;12.15;;;10.57;;
52982;SDS011;48698;45.736;13.926;2023-03-01T20:37:59;7.55;;;4.70;;
52982;SDS011;48698;45.736;13.926;2023-03-01T20:43:02;33.67;;;16.60;;
52982;SDS011;48698;45.736;13.926;2023-03-01T20:48:13;76.95;;;34.70;;
52982;SDS011;48698;45.736;13.926;2023-03-01T20:53:16;8.18;;;3.95;;
52982;SDS011;48698;45.736;13.926;2023-03-01T20:58:19;3.95;;;2.22;;
52982;SDS011;48698;45.736;13.926;2023-03-01T21:03:23;23.00;;;10.10;;
52982;SDS011;48698;45.736;13.926;2023-03-01T21:08:26;134.52;;;57.70;;
52982;SDS011;48698;45.736;13.926;2023-03-01T21:13:31;1.90;;;1.30;;
52982;SDS011;48698;45.736;13.926;2023-03-01T21:18:36;6.68;;;3.63;;
52982;SDS011;48698;45.736;13.926;2023-03-01T21:23:40;43.10;;;25.13;;
52982;SDS011;48698;45.736;13.926;2023-03-01T21:28:44;8.50;;;4.90;;
52982;SDS011;48698;45.736;13.926;2023-03-01T21:33:50;2.22;;;1.23;;
52982;SDS011;48698;45.736;13.926;2023-03-01T21:38:54;13.88;;;10.27;;
52982;SDS011;48698;45.736;13.926;2023-03-01T21:44:00;1.98;;;1.52;;
52982;SDS011;48698;45.736;13.926;2023-03-01T21:49:07;0.80;;;0.80;;
52982;SDS011;48698;45.736;13.926;2023-03-01T21:54:12;16.52;;;10.10;;
52982;SDS011;48698;45.736;13.926;2023-03-01T21:59:20;19.42;;;12.57;;
52982;SDS011;48698;45.736;13.926;2023-03-01T22:04:24;2.38;;;1.63;;
52982;SDS011;48698;45.736;13.926;2023-03-01T22:09:32;0.88;;;0.88;;
52982;SDS011;48698;45.736;13.926;2023-03-01T22:19:42;3.72;;;2.75;;
52982;SDS011;48698;45.736;13.926;2023-03-01T22:24:46;4.65;;;3.35;;
52982;SDS011;48698;45.736;13.926;2023-03-01T22:29:49;7.65;;;4.82;;
52982;SDS011;48698;45.736;13.926;2023-03-01T22:34:53;2.20;;;2.00;;
52982;SDS011;48698;45.736;13.926;2023-03-01T22:39:56;4.07;;;2.90;;
52982;SDS011;48698;45.736;13.926;2023-03-01T22:45:00;4.93;;;4.43;;
52982;SDS011;48698;45.736;13.926;2023-03-01T22:50:04;3.50;;;3.20;;
52982;SDS011;48698;45.736;13.926;2023-03-01T22:55:09;4.25;;;2.30;;
52982;SDS011;48698;45.736;13.926;2023-03-01T23:00:13;6.93;;;6.32;;
52982;SDS011;48698;45.736;13.926;2023-03-01T23:05:17;8.05;;;6.00;;
52982;SDS011;48698;45.736;13.926;2023-03-01T23:10:21;1.20;;;1.10;;
52982;SDS011;48698;45.736;13.926;2023-03-01T23:15:24;1.60;;;1.50;;
52982;SDS011;48698;45.736;13.926;2023-03-01T23:20:28;1.05;;;1.00;;
52982;SDS011;48698;45.736;13.926;2023-03-01T23:25:31;1.20;;;1.10;;
52982;SDS011;48698;45.736;13.926;2023-03-01T23:30:34;1.48;;;0.90;;
52982;SDS011;48698;45.736;13.926;2023-03-01T23:35:38;0.98;;;0.98;;
52982;SDS011;48698;45.736;13.926;2023-03-01T23:40:42;1.48;;;1.27;;
52982;SDS011;48698;45.736;13.926;2023-03-01T23:45:46;1.20;;;1.10;;
52982;SDS011;48698;45.736;13.926;2023-03-01T23:50:49;1.48;;;1.38;;
52982;SDS011;48698;45.736;13.926;2023-03-01T23:55:53;1.30;;;1.20;;
